createdAt,value
2023-05-10T00:00:52.736Z,948.66
2023-05-10T00:05:53.973Z,948.62
2023-05-10T00:10:55.702Z,948.59
2023-05-10T00:15:57.522Z,948.61
2023-05-10T00:20:59.496Z,948.55
2023-05-10T00:26:10.420Z,948.49
2023-05-10T00:31:02.701Z,948.42
2023-05-10T00:36:04.503Z,948.38
2023-05-10T00:41:06.635Z,948.39
2023-05-10T00:46:08.614Z,948.41
2023-05-10T00:51:10.529Z,948.36
2023-05-10T00:56:12.105Z,948.36
2023-05-10T01:01:13.758Z,948.31
2023-05-10T01:06:15.350Z,948.35
2023-05-10T01:11:16.558Z,948.41
2023-05-10T01:16:18.607Z,948.39
2023-05-10T01:21:20.577Z,948.44
2023-05-10T01:26:21.848Z,948.42
2023-05-10T01:31:24.023Z,948.46
2023-05-10T01:36:25.636Z,948.43
2023-05-10T01:41:27.017Z,948.4
2023-05-10T01:46:28.722Z,948.43
2023-05-10T01:51:30.639Z,948.44
2023-05-10T01:56:32.558Z,948.43
2023-05-10T02:01:40.398Z,948.42
2023-05-10T02:06:41.691Z,948.43
2023-05-10T02:11:43.610Z,948.47
2023-05-10T02:16:45.063Z,948.46
2023-05-10T02:21:46.597Z,948.46
2023-05-10T02:26:48.227Z,948.44
2023-05-10T02:31:49.842Z,948.4
2023-05-10T02:36:51.309Z,948.43
2023-05-10T02:41:52.822Z,948.39
2023-05-10T02:46:54.471Z,948.41
2023-05-10T02:51:55.947Z,948.44
2023-05-10T02:56:57.586Z,948.45
2023-05-10T03:01:59.538Z,948.48
2023-05-10T03:07:01.375Z,948.5
2023-05-10T03:12:03.469Z,948.52
2023-05-10T03:17:04.801Z,948.58
2023-05-10T03:22:06.796Z,948.58
2023-05-10T03:27:08.424Z,948.64
2023-05-10T03:32:09.960Z,948.68
2023-05-10T03:37:11.491Z,948.7
2023-05-10T03:42:13.676Z,948.71
2023-05-10T03:47:15.747Z,948.77
2023-05-10T03:52:17.879Z,948.8
2023-05-10T03:57:19.553Z,948.81
2023-05-10T04:02:20.883Z,948.84
2023-05-10T04:07:22.224Z,948.86
2023-05-10T04:12:23.743Z,948.87
2023-05-10T04:17:25.820Z,948.89
2023-05-10T04:22:27.309Z,948.93
2023-05-10T04:27:28.964Z,948.97
2023-05-10T04:32:30.977Z,948.97
2023-05-10T04:37:41.832Z,949
2023-05-10T04:42:34.142Z,949.02
2023-05-10T04:47:35.796Z,949.03
2023-05-10T04:52:37.921Z,949.05
2023-05-10T04:57:39.146Z,949.08
2023-05-10T05:02:40.479Z,949.06
2023-05-10T05:07:42.341Z,949.11
2023-05-10T05:12:43.847Z,949.14
2023-05-10T05:17:45.208Z,949.21
2023-05-10T05:22:46.487Z,949.23
2023-05-10T05:27:48.362Z,949.19
2023-05-10T05:32:50.209Z,949.23
2023-05-10T05:37:51.914Z,949.25
2023-05-10T05:42:54.177Z,949.3
2023-05-10T05:47:55.420Z,949.31
2023-05-10T05:52:57.477Z,949.27
2023-05-10T05:57:59.540Z,949.28
2023-05-10T06:03:01.402Z,949.35
2023-05-10T06:08:02.714Z,949.43
2023-05-10T06:13:04.437Z,949.66
2023-05-10T06:18:06.615Z,949.68
2023-05-10T06:23:07.891Z,949.7
2023-05-10T06:28:17.138Z,949.76
2023-05-10T06:33:10.966Z,949.84
2023-05-10T06:43:14.851Z,949.89
2023-05-10T06:48:16.797Z,949.91
2023-05-10T06:53:18.220Z,949.99
2023-05-10T06:58:19.795Z,949.97
2023-05-10T07:03:21.641Z,950.06
2023-05-10T08:03:41.204Z,950.52
2023-05-10T08:08:52.293Z,950.63
2023-05-10T08:13:45.244Z,950.67
2023-05-10T08:18:55.675Z,950.75
2023-05-10T08:23:47.965Z,950.69
2023-05-10T08:28:49.817Z,950.72
2023-05-10T08:33:51.706Z,950.66
2023-05-10T08:38:53.170Z,950.69
2023-05-10T08:44:02.731Z,950.7
2023-05-10T08:48:56.721Z,950.64
2023-05-10T08:53:58.933Z,950.62
2023-05-10T08:59:00.925Z,950.62
2023-05-10T09:04:02.313Z,950.66
2023-05-10T09:09:04.278Z,950.59
2023-05-10T09:14:06.031Z,950.66
2023-05-10T09:19:08.346Z,950.68
2023-05-10T09:24:09.405Z,950.63
2023-05-10T09:29:10.881Z,950.75
2023-05-10T09:34:20.784Z,950.76
2023-05-10T09:39:14.093Z,950.77
2023-05-10T09:44:15.321Z,950.82
2023-05-10T09:49:16.542Z,950.74
2023-05-10T09:54:18.148Z,950.7
2023-05-10T09:59:19.398Z,950.66
2023-05-10T10:04:20.978Z,950.58
2023-05-10T10:09:22.761Z,950.69
2023-05-10T10:14:24.087Z,950.7
2023-05-10T10:19:26.085Z,950.68
2023-05-10T10:24:28.116Z,950.63
2023-05-10T10:29:30.008Z,950.7
2023-05-10T10:34:31.499Z,950.63
2023-05-10T10:39:33.231Z,950.67
2023-05-10T10:44:35.350Z,950.63
2023-05-10T10:49:37.144Z,950.62
2023-05-10T10:54:38.926Z,950.64
2023-05-10T10:59:40.979Z,950.53
2023-05-10T11:04:42.359Z,950.49
2023-05-10T11:09:43.575Z,950.51
2023-05-10T11:14:45.344Z,950.49
2023-05-10T11:19:47.016Z,950.51
2023-05-10T11:24:50.181Z,950.63
2023-05-10T11:29:50.430Z,950.75
2023-05-10T11:34:51.962Z,950.83
2023-05-10T11:39:53.228Z,950.83
2023-05-10T11:44:55.281Z,950.82
2023-05-10T11:49:56.713Z,950.83
2023-05-10T11:54:58.055Z,950.89
2023-05-10T11:59:59.726Z,950.81
2023-05-10T12:05:01.188Z,950.77
2023-05-10T12:10:02.809Z,950.85
2023-05-10T12:15:04.594Z,950.84
2023-05-10T12:20:06.044Z,950.78
2023-05-10T12:25:08.221Z,950.85
2023-05-10T12:30:09.986Z,950.88
2023-05-10T12:35:11.519Z,950.89
2023-05-10T12:40:13.435Z,950.93
2023-05-10T12:45:15.622Z,951.02
2023-05-10T12:50:17.213Z,950.97
2023-05-10T12:55:18.732Z,950.95
2023-05-10T13:00:20.645Z,950.92
2023-05-10T13:05:22.105Z,950.89
2023-05-10T13:10:24.012Z,950.97
2023-05-10T13:15:25.515Z,950.98
2023-05-10T13:20:27.142Z,951.04
2023-05-10T13:25:29.262Z,951.03
2023-05-10T13:30:31.141Z,951.06
2023-05-10T13:35:32.930Z,951.03
2023-05-10T13:40:34.424Z,951.18
2023-05-10T13:45:35.595Z,951.23
2023-05-10T13:50:37.266Z,951.14
2023-05-10T13:55:39.280Z,951.14
2023-05-10T14:00:41.022Z,951.16
2023-05-10T14:05:42.386Z,951.15
2023-05-10T14:10:44.330Z,951.13
2023-05-10T14:15:45.537Z,951.09
2023-05-10T14:20:47.000Z,951.1
2023-05-10T14:25:48.521Z,951.16
2023-05-10T14:30:50.278Z,951.12
2023-05-10T14:35:51.557Z,951.12
2023-05-10T14:40:52.901Z,951.15
2023-05-10T14:45:54.610Z,951.2
2023-05-10T14:50:56.040Z,951.25
2023-05-10T14:56:06.892Z,951.26
2023-05-10T15:00:59.622Z,951.28
2023-05-10T15:06:01.191Z,951.3
2023-05-10T15:11:03.013Z,951.34
2023-05-10T15:16:04.785Z,951.4
2023-05-10T15:21:06.511Z,951.45
2023-05-10T15:26:08.384Z,951.47
2023-05-10T15:31:10.003Z,951.53
2023-05-10T15:36:12.037Z,951.51
2023-05-10T15:41:22.747Z,951.52
2023-05-10T15:46:15.698Z,951.55
2023-05-10T15:51:17.561Z,951.59
2023-05-10T15:56:18.735Z,951.58
2023-05-10T16:01:20.196Z,951.58
2023-05-10T16:06:22.251Z,951.59
2023-05-10T16:11:23.929Z,951.67
2023-05-10T16:16:25.859Z,951.69
2023-05-10T16:21:27.868Z,951.65
2023-05-10T16:26:29.933Z,951.7
2023-05-10T16:31:32.027Z,951.66
2023-05-10T16:36:34.036Z,951.7
2023-05-10T16:41:35.909Z,951.72
2023-05-10T16:46:37.416Z,951.77
2023-05-10T16:51:39.562Z,951.77
2023-05-10T16:56:41.218Z,951.88
2023-05-10T17:01:42.957Z,951.91
2023-05-10T17:06:44.570Z,951.98
2023-05-10T17:11:46.278Z,952.02
2023-05-10T17:16:47.533Z,951.97
2023-05-10T17:21:48.783Z,952.06
2023-05-10T17:26:50.931Z,952.15
2023-05-10T17:31:52.525Z,952.15
2023-05-10T17:36:53.978Z,952.21
2023-05-10T17:41:55.562Z,952.24
2023-05-10T17:46:56.836Z,952.28
2023-05-10T17:51:58.038Z,952.35
2023-05-10T17:57:00.031Z,952.34
2023-05-10T18:02:01.979Z,952.4
2023-05-10T18:07:03.511Z,952.45
2023-05-10T18:12:04.858Z,952.48
2023-05-10T18:17:06.843Z,952.47
2023-05-10T18:22:10.608Z,952.49
2023-05-10T18:27:09.554Z,952.52
2023-05-10T18:32:11.028Z,952.51
2023-05-10T18:37:13.088Z,952.62
2023-05-10T18:42:14.994Z,952.65
2023-05-10T18:42:21.294Z,952.64
2023-05-10T18:47:23.455Z,952.65
2023-05-10T18:52:25.269Z,952.76
2023-05-10T18:57:27.065Z,952.71
2023-05-10T19:02:28.674Z,952.83
2023-05-10T19:07:30.319Z,952.83
2023-05-10T19:12:32.186Z,952.82
2023-05-10T19:17:35.727Z,952.92
2023-05-10T19:22:45.308Z,952.85
2023-05-10T19:27:37.461Z,952.91
2023-05-10T19:32:39.159Z,952.91
2023-05-10T19:37:40.750Z,952.93
2023-05-10T19:42:42.043Z,952.93
2023-05-10T19:47:43.633Z,952.99
2023-05-10T19:52:45.612Z,952.94
2023-05-10T19:57:47.644Z,952.97
2023-05-10T20:02:49.133Z,952.92
2023-05-10T20:07:50.529Z,952.91
2023-05-10T20:12:52.489Z,952.88
2023-05-10T20:17:54.458Z,952.95
2023-05-10T20:22:55.901Z,952.94
2023-05-10T20:27:57.456Z,952.97
2023-05-10T20:32:58.982Z,952.96
2023-05-10T20:38:00.470Z,952.97
2023-05-10T20:43:02.417Z,952.97
2023-05-10T20:48:04.311Z,952.96
2023-05-10T20:53:05.515Z,952.98
2023-05-10T20:58:07.540Z,952.97
2023-05-10T21:03:08.885Z,953.02
2023-05-10T21:08:10.942Z,953.04
2023-05-10T21:13:12.986Z,953.01
2023-05-10T21:18:14.385Z,952.91
2023-05-10T21:23:15.944Z,952.87
2023-05-10T21:28:17.524Z,952.8
2023-05-10T21:33:18.893Z,952.87
2023-05-10T22:28:38.088Z,952.82
2023-05-10T22:33:40.137Z,952.83
2023-05-10T22:38:41.459Z,952.77
2023-05-10T22:43:42.776Z,952.75
2023-05-10T22:48:44.001Z,952.7
2023-05-10T22:53:46.151Z,952.7
2023-05-10T22:58:47.765Z,952.67
2023-05-10T23:03:49.005Z,952.74
2023-05-10T23:08:50.324Z,952.74
2023-05-10T23:13:51.837Z,952.72
2023-05-10T23:18:53.236Z,952.73
2023-05-10T23:24:04.108Z,952.76
2023-05-10T23:28:56.966Z,952.77
2023-05-10T23:33:58.505Z,952.79
2023-05-10T23:39:00.146Z,952.77
2023-05-10T23:44:01.858Z,952.75
2023-05-10T23:49:03.648Z,952.74
2023-05-10T23:54:05.078Z,952.71
2023-05-10T23:59:06.595Z,952.64
